createdAt,value
2022-08-26T00:00:20.855Z,26.11
2022-08-26T00:02:49.407Z,26.09
2022-08-26T00:05:18.030Z,26.07
2022-08-26T00:07:46.457Z,26.06
2022-08-26T00:10:15.605Z,26.05
2022-08-26T00:12:44.058Z,26.02
2022-08-26T00:15:17.004Z,26.00
2022-08-26T00:17:45.460Z,25.96
2022-08-26T00:20:19.976Z,25.93
2022-08-26T00:22:48.796Z,25.91
2022-08-26T00:25:18.027Z,25.88
2022-08-26T00:27:47.490Z,25.85
2022-08-26T00:30:22.875Z,25.82
2022-08-26T00:32:52.939Z,25.71
2022-08-26T00:35:22.804Z,25.65
2022-08-26T00:37:51.365Z,25.63
2022-08-26T00:40:23.478Z,25.58
2022-08-26T00:42:52.930Z,25.55
2022-08-26T00:45:23.319Z,25.49
2022-08-26T00:47:55.579Z,25.45
2022-08-26T00:50:28.220Z,25.42
2022-08-26T00:52:59.122Z,25.41
2022-08-26T00:55:37.751Z,25.40
2022-08-26T00:58:08.554Z,25.37
2022-08-26T01:00:38.387Z,25.32
2022-08-26T01:03:11.506Z,25.31
2022-08-26T01:05:42.402Z,25.33
2022-08-26T01:08:11.282Z,25.30
2022-08-26T01:10:40.708Z,25.29
2022-08-26T01:13:11.450Z,25.28
2022-08-26T01:15:48.683Z,25.25
2022-08-26T01:18:17.252Z,25.22
2022-08-26T01:20:57.789Z,25.21
2022-08-26T01:23:34.280Z,25.19
2022-08-26T01:26:19.502Z,25.16
2022-08-26T01:28:51.673Z,25.15
2022-08-26T01:31:45.497Z,25.15
2022-08-26T01:34:21.350Z,25.11
2022-08-26T01:36:51.812Z,25.11
2022-08-26T01:39:21.909Z,25.10
2022-08-26T01:41:53.748Z,25.10
2022-08-26T01:44:26.932Z,25.09
2022-08-26T01:46:58.676Z,25.08
2022-08-26T01:49:29.184Z,25.06
2022-08-26T01:52:02.184Z,25.04
2022-08-26T01:54:33.720Z,25.02
2022-08-26T01:57:03.177Z,24.98
2022-08-26T01:59:32.139Z,24.93
2022-08-26T02:02:00.535Z,24.91
2022-08-26T02:04:33.564Z,24.87
2022-08-26T02:07:06.288Z,24.85
2022-08-26T02:09:41.299Z,24.81
2022-08-26T02:12:11.901Z,24.81
2022-08-26T02:14:44.406Z,24.81
2022-08-26T02:17:13.237Z,24.80
2022-08-26T02:19:46.528Z,24.79
2022-08-26T02:22:19.772Z,24.77
2022-08-26T02:24:52.532Z,24.77
2022-08-26T02:27:23.877Z,24.76
2022-08-26T02:29:56.652Z,24.75
2022-08-26T02:32:25.787Z,24.72
2022-08-26T02:34:55.890Z,24.71
2022-08-26T02:37:24.419Z,24.67
2022-08-26T02:39:55.221Z,24.64
2022-08-26T02:42:23.906Z,24.64
2022-08-26T02:44:53.463Z,24.61
2022-08-26T02:47:24.914Z,24.54
2022-08-26T02:49:53.550Z,24.50
2022-08-26T02:52:22.188Z,24.47
2022-08-26T02:54:50.656Z,24.47
2022-08-26T02:57:20.772Z,24.43
2022-08-26T02:59:50.583Z,24.41
2022-08-26T03:02:19.086Z,24.41
2022-08-26T03:04:57.787Z,24.40
2022-08-26T03:07:32.111Z,24.40
2022-08-26T03:10:00.864Z,24.37
2022-08-26T03:12:30.638Z,24.32
2022-08-26T03:14:58.973Z,24.27
2022-08-26T03:17:27.466Z,24.22
2022-08-26T03:19:57.230Z,24.20
2022-08-26T03:22:27.124Z,24.19
2022-08-26T03:24:55.916Z,24.16
2022-08-26T03:27:24.339Z,24.16
2022-08-26T03:30:11.848Z,24.11
2022-08-26T03:32:41.500Z,24.12
2022-08-26T03:35:10.676Z,24.11
2022-08-26T03:37:39.725Z,24.12
2022-08-26T03:40:10.503Z,24.14
2022-08-26T03:42:40.906Z,24.17
2022-08-26T03:45:17.053Z,24.18
2022-08-26T03:47:45.772Z,24.19
2022-08-26T03:50:17.619Z,24.21
2022-08-26T03:52:51.999Z,24.21
2022-08-26T03:55:23.771Z,24.20
2022-08-26T03:57:52.394Z,24.17
2022-08-26T04:00:22.626Z,24.18
2022-08-26T04:02:53.370Z,24.18
2022-08-26T04:05:23.431Z,24.14
2022-08-26T04:07:52.956Z,24.14
2022-08-26T04:10:28.758Z,24.14
2022-08-26T04:12:58.916Z,24.13
2022-08-26T04:15:29.740Z,24.10
2022-08-26T04:17:58.426Z,24.09
2022-08-26T04:20:27.001Z,24.09
2022-08-26T04:22:55.426Z,24.10
2022-08-26T04:25:24.338Z,24.16
2022-08-26T04:27:52.991Z,24.19
2022-08-26T04:30:22.065Z,24.18
2022-08-26T04:32:51.931Z,24.16
2022-08-26T04:35:25.775Z,24.19
2022-08-26T04:37:55.607Z,24.22
2022-08-26T04:40:24.663Z,24.22
2022-08-26T04:42:54.415Z,24.26
2022-08-26T04:45:23.074Z,24.30
2022-08-26T04:47:56.504Z,24.34
2022-08-26T04:50:26.789Z,24.37
2022-08-26T04:52:55.445Z,24.40
2022-08-26T04:55:38.425Z,24.43
2022-08-26T04:58:11.284Z,24.45
2022-08-26T05:00:40.510Z,24.47
2022-08-26T05:03:10.810Z,24.51
2022-08-26T05:05:41.368Z,24.54
2022-08-26T05:08:11.306Z,24.58
2022-08-26T05:10:44.571Z,24.63
2022-08-26T05:13:15.616Z,24.68
2022-08-26T05:15:45.571Z,24.75
2022-08-26T05:18:17.765Z,24.81
2022-08-26T05:20:50.225Z,24.89
2022-08-26T05:23:21.835Z,24.96
2022-08-26T05:25:54.767Z,25.05
2022-08-26T05:28:29.629Z,25.13
2022-08-26T05:30:58.630Z,25.20
2022-08-26T05:33:29.487Z,25.27
2022-08-26T05:35:57.891Z,25.36
2022-08-26T05:38:26.822Z,25.44
2022-08-26T05:40:59.072Z,25.50
2022-08-26T05:43:31.387Z,25.58
2022-08-26T05:46:08.140Z,25.67
2022-08-26T05:48:38.141Z,25.73
2022-08-26T05:51:09.487Z,25.80
2022-08-26T05:53:38.480Z,25.88
2022-08-26T05:56:08.275Z,25.93
2022-08-26T05:58:37.941Z,26.02
2022-08-26T06:01:10.370Z,26.10
2022-08-26T06:03:44.767Z,26.17
2022-08-26T06:06:16.130Z,26.24
2022-08-26T06:08:49.059Z,26.32
2022-08-26T06:11:19.894Z,26.41
2022-08-26T06:13:48.716Z,26.50
2022-08-26T06:16:18.702Z,26.59
2022-08-26T06:18:50.716Z,26.68
2022-08-26T06:21:24.148Z,26.77
2022-08-26T06:24:12.574Z,26.84
2022-08-26T06:26:42.794Z,26.93
2022-08-26T06:29:11.402Z,27.02
2022-08-26T06:31:44.262Z,27.12
2022-08-26T06:34:14.256Z,27.20
2022-08-26T06:36:44.845Z,27.30
2022-08-26T06:39:16.559Z,27.38
2022-08-26T06:41:46.523Z,27.45
2022-08-26T06:44:21.021Z,27.53
2022-08-26T06:46:50.473Z,27.61
2022-08-26T06:49:25.861Z,27.70
2022-08-26T06:51:58.556Z,27.79
2022-08-26T06:54:28.013Z,27.89
2022-08-26T06:56:57.632Z,27.97
2022-08-26T06:59:26.751Z,28.07
2022-08-26T07:01:55.585Z,28.15
2022-08-26T07:04:27.949Z,28.25
2022-08-26T07:06:57.427Z,28.35
2022-08-26T07:09:29.309Z,28.43
2022-08-26T07:11:58.184Z,28.50
2022-08-26T07:14:27.156Z,28.57
2022-08-26T07:16:56.140Z,28.66
2022-08-26T07:19:30.166Z,28.71
2022-08-26T07:22:03.651Z,28.79
2022-08-26T07:24:32.906Z,28.88
2022-08-26T07:27:02.803Z,28.97
2022-08-26T07:29:31.458Z,29.08
2022-08-26T07:32:00.426Z,29.19
2022-08-26T07:34:32.297Z,29.34
2022-08-26T07:37:02.299Z,29.45
2022-08-26T07:39:31.868Z,29.52
2022-08-26T07:42:03.848Z,29.63
2022-08-26T07:44:36.808Z,29.70
2022-08-26T07:47:10.052Z,29.79
2022-08-26T07:49:54.956Z,29.89
2022-08-26T07:52:26.589Z,29.97
2022-08-26T07:54:56.636Z,30.02
2022-08-26T07:57:25.217Z,30.10
2022-08-26T07:59:55.220Z,30.17
2022-08-26T08:02:24.755Z,30.22
2022-08-26T08:04:55.393Z,30.32
2022-08-26T08:07:38.694Z,30.41
2022-08-26T08:10:14.196Z,30.49
2022-08-26T08:12:42.731Z,30.59
2022-08-26T08:15:13.447Z,30.68
2022-08-26T08:17:42.993Z,30.73
2022-08-26T08:20:14.915Z,30.80
2022-08-26T08:22:43.817Z,30.85
2022-08-26T08:25:13.171Z,30.97
2022-08-26T08:27:43.252Z,31.07
2022-08-26T08:30:13.830Z,31.16
2022-08-26T08:32:44.555Z,31.24
2022-08-26T08:35:17.657Z,31.37
2022-08-26T08:37:46.739Z,31.48
2022-08-26T08:40:18.594Z,31.60
2022-08-26T08:45:27.463Z,31.95
2022-08-26T08:47:58.953Z,32.14
2022-08-26T08:50:32.486Z,32.38
2022-08-26T08:53:11.229Z,32.64
2022-08-26T08:55:49.994Z,32.94
2022-08-26T08:58:23.532Z,33.29
2022-08-26T09:01:00.185Z,33.49
2022-08-26T09:03:40.963Z,33.73
2022-08-26T09:06:17.513Z,33.85
2022-08-26T09:08:50.451Z,34.09
2022-08-26T09:11:21.341Z,34.25
2022-08-26T09:13:53.205Z,34.41
2022-08-26T09:16:26.194Z,34.66
2022-08-26T09:19:05.296Z,34.70
2022-08-26T09:21:35.286Z,34.66
2022-08-26T09:24:04.007Z,34.68
2022-08-26T09:26:45.520Z,34.70
2022-08-26T09:29:22.438Z,34.63
2022-08-26T09:31:51.193Z,34.64
2022-08-26T09:34:22.508Z,34.77
2022-08-26T09:36:54.715Z,34.85
2022-08-26T09:39:31.719Z,34.97
2022-08-26T09:42:06.232Z,34.99
2022-08-26T09:44:37.151Z,35.05
2022-08-26T09:47:06.966Z,35.06
2022-08-26T09:49:37.244Z,35.09
2022-08-26T09:52:16.453Z,35.01
2022-08-26T09:54:46.229Z,34.93
2022-08-26T09:57:18.845Z,34.87
2022-08-26T09:59:47.746Z,34.72
2022-08-26T10:02:37.437Z,34.75
2022-08-26T10:05:10.955Z,34.47
2022-08-26T10:07:45.229Z,34.34
2022-08-26T10:10:19.112Z,34.30
2022-08-26T10:12:54.359Z,34.15
2022-08-26T10:15:26.742Z,34.16
2022-08-26T10:18:21.237Z,34.32
2022-08-26T10:20:58.147Z,34.38
2022-08-26T10:23:32.568Z,34.42
2022-08-26T10:26:07.049Z,34.69
2022-08-26T10:28:41.517Z,35.11
2022-08-26T10:31:27.410Z,35.64
2022-08-26T10:34:00.343Z,35.35
2022-08-26T10:37:14.724Z,34.89
2022-08-26T10:39:53.004Z,35.18
2022-08-26T10:42:31.356Z,35.82
2022-08-26T10:45:07.615Z,36.27
2022-08-26T10:47:47.646Z,36.70
2022-08-26T10:50:18.005Z,36.40
2022-08-26T10:52:56.551Z,36.90
2022-08-26T10:55:34.697Z,37.46
2022-08-26T10:58:26.264Z,37.80
2022-08-26T11:01:22.735Z,38.19
2022-08-26T11:03:58.913Z,38.47
2022-08-26T11:06:29.804Z,38.99
2022-08-26T11:08:59.885Z,38.93
2022-08-26T11:11:50.758Z,38.93
2022-08-26T11:14:40.698Z,38.84
2022-08-26T11:17:55.456Z,39.00
2022-08-26T11:20:35.954Z,39.41
2022-08-26T11:23:50.812Z,39.57
2022-08-26T11:26:36.281Z,39.33
2022-08-26T11:29:13.563Z,38.73
2022-08-26T11:31:57.586Z,38.46
2022-08-26T11:35:02.221Z,38.47
2022-08-26T11:37:40.497Z,38.23
2022-08-26T11:40:13.334Z,38.10
2022-08-26T11:42:45.183Z,37.61
2022-08-26T11:45:24.001Z,37.38
2022-08-26T11:47:52.534Z,37.47
2022-08-26T11:50:26.166Z,37.26
2022-08-26T11:52:59.286Z,37.18
2022-08-26T11:55:27.751Z,36.86
2022-08-26T11:58:00.967Z,36.45
2022-08-26T12:00:34.473Z,36.06
2022-08-26T12:03:08.130Z,35.86
2022-08-26T12:05:43.591Z,35.53
2022-08-26T12:08:17.940Z,35.39
2022-08-26T12:10:46.429Z,35.24
2022-08-26T12:13:23.322Z,35.18
2022-08-26T12:15:56.820Z,34.89
2022-08-26T12:18:29.537Z,34.63
2022-08-26T12:21:01.706Z,34.52
2022-08-26T12:23:41.727Z,34.39
2022-08-26T12:26:14.269Z,34.35
2022-08-26T12:28:47.198Z,34.24
2022-08-26T12:31:25.342Z,34.17
2022-08-26T12:33:55.226Z,34.03
2022-08-26T12:36:28.624Z,33.97
2022-08-26T12:38:58.556Z,33.82
2022-08-26T12:41:46.567Z,33.77
2022-08-26T12:44:53.628Z,33.75
2022-08-26T12:47:33.859Z,33.78
2022-08-26T12:50:19.426Z,33.81
2022-08-26T12:52:57.297Z,33.76
2022-08-26T12:55:29.147Z,33.72
2022-08-26T12:58:21.693Z,33.69
2022-08-26T13:00:50.823Z,33.64
2022-08-26T13:03:43.994Z,33.69
2022-08-26T13:06:16.332Z,33.76
2022-08-26T13:08:46.829Z,33.79
2022-08-26T13:11:20.899Z,33.81
2022-08-26T13:13:51.944Z,33.82
2022-08-26T13:16:22.907Z,33.80
2022-08-26T13:18:55.727Z,33.73
2022-08-26T13:21:26.154Z,33.72
2022-08-26T13:23:55.425Z,33.73
2022-08-26T13:26:24.087Z,33.73
2022-08-26T13:29:01.394Z,33.72
2022-08-26T13:31:32.412Z,33.66
2022-08-26T13:34:04.446Z,33.69
2022-08-26T13:36:33.110Z,33.63
2022-08-26T13:39:01.723Z,33.65
2022-08-26T13:41:32.067Z,33.71
2022-08-26T13:44:00.843Z,33.54
2022-08-26T13:46:30.184Z,33.49
2022-08-26T13:48:59.037Z,33.44
2022-08-26T13:51:29.938Z,33.45
2022-08-26T13:53:58.670Z,33.46
2022-08-26T13:56:29.749Z,33.46
2022-08-26T13:58:58.659Z,33.42
2022-08-26T14:01:27.593Z,33.36
2022-08-26T14:03:56.347Z,33.32
2022-08-26T14:06:25.171Z,33.27
2022-08-26T14:08:55.069Z,33.18
2022-08-26T14:11:25.176Z,33.07
2022-08-26T14:13:54.074Z,33.00
2022-08-26T14:16:27.114Z,33.01
2022-08-26T14:18:56.329Z,32.95
2022-08-26T14:21:26.647Z,32.86
2022-08-26T14:24:00.721Z,32.85
2022-08-26T14:26:30.135Z,32.84
2022-08-26T14:28:59.837Z,32.77
2022-08-26T14:31:29.484Z,32.66
2022-08-26T14:34:00.352Z,32.61
2022-08-26T14:36:33.017Z,32.54
2022-08-26T14:39:06.688Z,32.52
2022-08-26T14:41:39.537Z,32.51
2022-08-26T14:44:13.780Z,32.40
2022-08-26T14:46:45.869Z,32.37
2022-08-26T14:49:15.148Z,32.36
2022-08-26T14:51:43.600Z,32.33
2022-08-26T14:54:13.485Z,32.37
2022-08-26T14:56:46.034Z,32.41
2022-08-26T14:59:15.984Z,32.36
2022-08-26T15:01:44.734Z,32.38
2022-08-26T15:04:13.280Z,32.33
2022-08-26T15:06:42.114Z,32.31
2022-08-26T15:09:12.631Z,32.22
2022-08-26T15:11:41.426Z,32.13
2022-08-26T15:14:14.715Z,32.10
2022-08-26T15:16:49.089Z,32.07
2022-08-26T15:19:18.434Z,32.09
2022-08-26T15:21:47.556Z,32.08
2022-08-26T15:24:19.798Z,32.08
2022-08-26T15:26:49.607Z,32.07
2022-08-26T15:29:18.648Z,32.07
2022-08-26T15:31:47.845Z,32.08
2022-08-26T15:34:17.320Z,32.06
2022-08-26T15:36:47.114Z,32.02
2022-08-26T15:39:18.177Z,32.00
2022-08-26T15:41:47.186Z,31.92
2022-08-26T15:44:18.033Z,31.87
2022-08-26T15:46:46.769Z,31.87
2022-08-26T15:49:17.523Z,31.91
2022-08-26T15:51:48.275Z,31.84
2022-08-26T15:54:20.029Z,31.81
2022-08-26T15:56:50.800Z,31.79
2022-08-26T15:59:20.688Z,31.74
2022-08-26T16:01:49.447Z,31.75
2022-08-26T16:04:18.785Z,31.65
2022-08-26T16:06:50.532Z,31.65
2022-08-26T16:09:21.233Z,31.62
2022-08-26T16:11:49.692Z,31.55
2022-08-26T16:14:18.170Z,31.48
2022-08-26T16:16:47.297Z,31.48
2022-08-26T16:19:15.985Z,31.40
2022-08-26T16:21:45.203Z,31.38
2022-08-26T16:24:14.407Z,31.34
2022-08-26T16:26:45.724Z,31.33
2022-08-26T16:29:16.163Z,31.30
2022-08-26T16:31:44.709Z,31.28
2022-08-26T16:34:13.237Z,31.25
2022-08-26T16:36:41.713Z,31.22
2022-08-26T16:39:10.718Z,31.20
2022-08-26T16:41:39.262Z,31.20
2022-08-26T16:44:11.569Z,31.19
2022-08-26T16:46:41.345Z,31.17
2022-08-26T16:49:09.882Z,31.13
2022-08-26T16:51:38.582Z,31.09
2022-08-26T16:54:08.950Z,31.07
2022-08-26T16:56:38.350Z,31.08
2022-08-26T16:59:11.740Z,31.07
2022-08-26T17:01:40.380Z,31.07
2022-08-26T17:04:08.936Z,31.05
2022-08-26T17:06:38.344Z,31.05
2022-08-26T17:09:07.174Z,31.05
2022-08-26T17:11:35.572Z,31.03
2022-08-26T17:14:04.318Z,30.97
2022-08-26T17:16:34.230Z,30.97
2022-08-26T17:19:04.605Z,30.95
2022-08-26T17:21:34.479Z,30.94
2022-08-26T17:24:03.382Z,30.93
2022-08-26T17:26:32.031Z,30.90
2022-08-26T17:29:00.587Z,30.90
2022-08-26T17:31:29.162Z,30.88
2022-08-26T17:33:59.200Z,30.83
2022-08-26T17:36:28.484Z,30.78
2022-08-26T17:38:58.340Z,30.75
2022-08-26T17:41:28.048Z,30.74
2022-08-26T17:43:57.207Z,30.69
2022-08-26T17:46:26.017Z,30.70
2022-08-26T17:48:54.523Z,30.69
2022-08-26T17:51:25.563Z,30.70
2022-08-26T17:53:54.659Z,30.71
2022-08-26T17:56:25.996Z,30.73
2022-08-26T17:58:56.925Z,30.69
2022-08-26T18:01:27.393Z,30.68
2022-08-26T18:04:00.269Z,30.64
2022-08-26T18:06:31.793Z,30.63
2022-08-26T18:09:00.549Z,30.62
2022-08-26T18:11:29.902Z,30.60
2022-08-26T18:14:00.018Z,30.58
2022-08-26T18:16:33.735Z,30.57
2022-08-26T18:19:02.191Z,30.57
2022-08-26T18:21:32.134Z,30.53
2022-08-26T18:24:00.566Z,30.48
2022-08-26T18:26:31.297Z,30.46
2022-08-26T18:29:00.364Z,30.46
2022-08-26T18:31:29.587Z,30.43
2022-08-26T18:34:00.340Z,30.39
2022-08-26T18:36:31.027Z,30.34
2022-08-26T18:39:01.512Z,30.29
2022-08-26T18:41:32.382Z,30.23
2022-08-26T18:44:01.046Z,30.13
2022-08-26T18:46:29.840Z,30.02
2022-08-26T18:48:58.577Z,29.96
2022-08-26T18:51:30.138Z,29.93
2022-08-26T18:53:58.959Z,29.88
2022-08-26T18:56:29.324Z,29.83
2022-08-26T18:58:58.444Z,29.77
2022-08-26T19:01:27.880Z,29.73
2022-08-26T19:03:56.828Z,29.68
2022-08-26T19:06:27.622Z,29.61
2022-08-26T19:08:58.010Z,29.55
2022-08-26T19:11:31.353Z,29.51
2022-08-26T19:14:01.694Z,29.44
2022-08-26T19:16:31.335Z,29.38
2022-08-26T19:19:01.514Z,29.33
2022-08-26T19:21:30.997Z,29.30
2022-08-26T19:24:01.117Z,29.24
2022-08-26T19:26:32.406Z,29.20
2022-08-26T19:29:01.567Z,29.15
2022-08-26T19:31:30.123Z,29.09
2022-08-26T19:33:59.638Z,29.04
2022-08-26T19:36:29.579Z,28.96
2022-08-26T19:38:58.239Z,28.87
2022-08-26T19:41:37.212Z,28.83
2022-08-26T19:44:10.366Z,28.80
2022-08-26T19:49:12.447Z,28.71
2022-08-26T19:51:40.874Z,28.63
2022-08-26T19:54:09.365Z,28.60
2022-08-26T19:56:37.914Z,28.57
2022-08-26T19:59:07.742Z,28.53
2022-08-26T20:01:36.279Z,28.48
2022-08-26T20:04:05.171Z,28.41
2022-08-26T20:06:33.618Z,28.31
2022-08-26T20:09:02.035Z,28.29
2022-08-26T20:11:31.268Z,28.29
2022-08-26T20:13:59.845Z,28.26
2022-08-26T20:16:29.802Z,28.16
2022-08-26T20:19:24.126Z,28.16
2022-08-26T20:21:52.590Z,28.14
2022-08-26T20:24:22.201Z,28.15
2022-08-26T20:26:51.114Z,28.15
2022-08-26T20:29:20.200Z,28.13
2022-08-26T20:31:52.546Z,28.12
2022-08-26T20:34:21.245Z,28.08
2022-08-26T20:36:51.493Z,28.04
2022-08-26T20:39:21.325Z,27.92
2022-08-26T20:41:50.192Z,27.82
2022-08-26T20:44:19.058Z,27.72
2022-08-26T20:46:47.610Z,27.67
2022-08-26T20:49:18.326Z,27.62
2022-08-26T20:51:50.902Z,27.50
2022-08-26T20:54:21.505Z,27.47
2022-08-26T20:56:52.078Z,27.48
2022-08-26T20:59:23.065Z,27.44
2022-08-26T21:01:51.781Z,27.43
2022-08-26T21:04:24.320Z,27.47
2022-08-26T21:06:54.499Z,27.40
2022-08-26T21:09:25.193Z,27.43
2022-08-26T21:11:54.868Z,27.45
2022-08-26T21:14:26.012Z,27.45
2022-08-26T21:16:54.885Z,27.44
2022-08-26T21:19:25.030Z,27.44
2022-08-26T21:21:53.548Z,27.41
2022-08-26T21:24:22.476Z,27.36
2022-08-26T21:26:51.226Z,27.31
2022-08-26T21:29:22.139Z,27.27
2022-08-26T21:31:50.974Z,27.27
2022-08-26T21:34:20.409Z,27.26
2022-08-26T21:36:50.901Z,27.21
2022-08-26T21:39:20.008Z,27.23
2022-08-26T21:41:48.648Z,27.20
2022-08-26T21:44:18.771Z,27.20
2022-08-26T21:46:47.657Z,27.19
2022-08-26T21:49:17.884Z,27.20
2022-08-26T21:51:48.472Z,27.20
2022-08-26T21:54:19.310Z,27.18
2022-08-26T21:56:48.402Z,27.16
2022-08-26T21:59:19.762Z,27.14
2022-08-26T22:01:48.662Z,27.08
2022-08-26T22:04:17.512Z,27.05
2022-08-26T22:06:47.907Z,27.03
2022-08-26T22:09:21.234Z,26.95
2022-08-26T22:11:50.326Z,26.89
2022-08-26T22:14:30.189Z,26.86
2022-08-26T22:17:00.343Z,26.85
2022-08-26T22:19:30.005Z,26.82
2022-08-26T22:21:58.910Z,26.80
2022-08-26T22:24:28.944Z,26.67
2022-08-26T22:26:58.190Z,26.58
2022-08-26T22:29:27.289Z,26.61
2022-08-26T22:31:55.813Z,26.62
2022-08-26T22:34:24.375Z,26.62
2022-08-26T22:36:52.857Z,26.59
2022-08-26T22:39:24.011Z,26.58
2022-08-26T22:41:55.377Z,26.56
2022-08-26T22:44:24.304Z,26.50
2022-08-26T22:46:55.621Z,26.46
2022-08-26T22:49:25.129Z,26.46
2022-08-26T22:51:53.653Z,26.38
2022-08-26T22:54:22.277Z,26.39
2022-08-26T22:56:50.748Z,26.39
2022-08-26T22:59:20.697Z,26.37
2022-08-26T23:01:49.359Z,26.35
2022-08-26T23:04:17.804Z,26.30
2022-08-26T23:06:47.816Z,26.31
2022-08-26T23:09:18.200Z,26.29
2022-08-26T23:11:47.613Z,26.26
2022-08-26T23:14:17.733Z,26.26
2022-08-26T23:16:47.888Z,26.24
2022-08-26T23:19:18.398Z,26.23
2022-08-26T23:21:47.293Z,26.18
2022-08-26T23:24:15.943Z,26.11
2022-08-26T23:26:45.809Z,26.06
2022-08-26T23:29:16.056Z,26.00
2022-08-26T23:31:44.903Z,26.02
2022-08-26T23:34:33.207Z,25.99
2022-08-26T23:37:02.081Z,25.97
2022-08-26T23:39:35.479Z,25.98
2022-08-26T23:42:04.105Z,25.99
2022-08-26T23:44:33.930Z,25.97
2022-08-26T23:47:02.521Z,25.91
2022-08-26T23:49:32.733Z,25.89
2022-08-26T23:52:19.165Z,25.88
2022-08-26T23:54:48.824Z,25.89
2022-08-26T23:57:19.858Z,25.84
2022-08-26T23:59:48.690Z,25.82
